createdAt,value
2019-02-15T00:01:06.787Z,78.70
2019-02-15T00:03:34.443Z,78.90
2019-02-15T00:06:02.010Z,78.90
2019-02-15T00:08:29.664Z,79.00
2019-02-15T00:10:57.423Z,78.90
2019-02-15T00:13:24.995Z,79.00
2019-02-15T00:15:52.631Z,78.80
2019-02-15T00:18:37.920Z,78.90
2019-02-15T00:21:16.888Z,78.70
2019-02-15T00:23:44.476Z,79.10
2019-02-15T00:26:13.054Z,79.30
2019-02-15T00:28:40.699Z,79.00
2019-02-15T00:31:27.935Z,79.10
2019-02-15T00:34:14.993Z,78.80
2019-02-15T00:36:55.214Z,78.90
2019-02-15T00:39:35.775Z,78.80
2019-02-15T00:42:15.336Z,79.00
2019-02-15T00:44:55.492Z,78.90
2019-02-15T00:47:55.253Z,78.90
2019-02-15T00:50:41.936Z,79.30
2019-02-15T00:53:27.089Z,78.70
2019-02-15T00:56:33.505Z,78.70
2019-02-15T00:59:29.012Z,77.80
2019-02-15T01:02:15.308Z,76.80
2019-02-15T01:05:15.313Z,77.00
2019-02-15T01:11:16.103Z,77.20
2019-02-15T01:13:56.005Z,77.00
2019-02-15T01:16:36.093Z,76.50
2019-02-15T01:19:16.116Z,76.20
2019-02-15T01:21:56.124Z,76.20
2019-02-15T01:24:36.558Z,76.10
2019-02-15T01:30:36.057Z,76.00
2019-02-15T01:33:35.304Z,76.10
2019-02-15T01:36:25.431Z,75.70
2019-02-15T01:39:21.541Z,75.90
2019-02-15T01:42:17.635Z,75.70
2019-02-15T01:44:52.540Z,75.90
2019-02-15T01:47:23.642Z,75.60
2019-02-15T01:49:51.532Z,76.20
2019-02-15T01:52:19.268Z,76.40
2019-02-15T01:54:46.893Z,76.20
2019-02-15T01:57:14.460Z,76.40
2019-02-15T01:59:42.188Z,76.70
2019-02-15T02:02:09.781Z,76.80
2019-02-15T02:04:56.804Z,77.10
2019-02-15T02:07:43.800Z,77.10
2019-02-15T02:10:24.280Z,77.40
2019-02-15T02:13:04.620Z,77.60
2019-02-15T02:15:44.824Z,77.70
2019-02-15T02:18:24.744Z,78.50
2019-02-15T02:21:05.161Z,78.30
2019-02-15T02:23:45.164Z,78.60
2019-02-15T02:26:25.324Z,79.30
2019-02-15T02:29:05.389Z,79.60
2019-02-15T02:31:45.513Z,80.40
2019-02-15T02:34:25.616Z,81.30
2019-02-15T02:37:05.617Z,81.80
2019-02-15T02:39:45.900Z,82.00
2019-02-15T02:42:25.915Z,81.90
2019-02-15T02:45:05.979Z,81.80
2019-02-15T02:47:46.437Z,82.20
2019-02-15T02:50:26.281Z,81.70
2019-02-15T02:53:06.217Z,81.70
2019-02-15T02:55:46.324Z,81.30
2019-02-15T02:58:26.648Z,81.00
2019-02-15T03:01:06.742Z,81.60
2019-02-15T03:03:46.788Z,81.60
2019-02-15T03:06:27.096Z,81.80
2019-02-15T03:09:08.959Z,81.70
2019-02-15T03:11:49.329Z,82.00
2019-02-15T03:14:29.216Z,82.10
2019-02-15T03:17:09.229Z,82.00
2019-02-15T03:19:49.537Z,81.80
2019-02-15T03:22:29.801Z,81.80
2019-02-15T03:25:10.042Z,81.80
2019-02-15T03:27:50.190Z,81.70
2019-02-15T03:30:30.365Z,81.80
2019-02-15T03:33:10.729Z,81.60
2019-02-15T03:39:00.000Z,81.70
2019-02-15T03:41:40.430Z,81.80
2019-02-15T03:44:22.601Z,81.60
2019-02-15T03:47:02.655Z,81.90
2019-02-15T03:49:42.665Z,81.50
2019-02-15T03:52:22.821Z,82.00
2019-02-15T03:55:02.858Z,81.80
2019-02-15T03:57:43.053Z,81.70
2019-02-15T04:00:23.062Z,81.70
2019-02-15T04:03:03.250Z,81.70
2019-02-15T04:05:43.356Z,81.40
2019-02-15T04:08:23.396Z,82.20
2019-02-15T04:11:03.516Z,82.50
2019-02-15T04:13:43.620Z,82.40
2019-02-15T04:16:23.508Z,82.50
2019-02-15T04:19:03.577Z,81.90
2019-02-15T04:21:43.715Z,82.40
2019-02-15T04:24:23.840Z,82.40
2019-02-15T04:27:03.947Z,82.30
2019-02-15T04:29:44.023Z,82.40
2019-02-15T04:32:24.249Z,82.30
2019-02-15T04:35:04.489Z,82.20
2019-02-15T04:37:45.076Z,82.70
2019-02-15T04:40:24.911Z,82.70
2019-02-15T04:43:05.119Z,82.30
2019-02-15T04:45:45.108Z,82.20
2019-02-15T04:48:25.169Z,82.40
2019-02-15T04:51:05.565Z,82.50
2019-02-15T04:53:45.373Z,82.50
2019-02-15T04:56:25.600Z,82.30
2019-02-15T04:59:05.694Z,82.50
2019-02-15T05:01:45.916Z,82.70
2019-02-15T05:04:14.064Z,82.50
2019-02-15T05:07:01.224Z,82.40
2019-02-15T05:09:42.401Z,82.50
2019-02-15T05:12:22.064Z,82.20
2019-02-15T05:15:02.371Z,82.30
2019-02-15T05:17:42.401Z,82.50
2019-02-15T05:20:22.631Z,82.40
2019-02-15T05:23:02.701Z,82.10
2019-02-15T05:25:42.931Z,82.30
2019-02-15T05:28:23.036Z,82.40
2019-02-15T05:31:03.169Z,82.20
2019-02-15T05:33:43.391Z,82.20
2019-02-15T05:36:23.398Z,82.30
2019-02-15T05:39:04.190Z,82.30
2019-02-15T05:41:44.449Z,82.20
2019-02-15T05:44:25.503Z,82.40
2019-02-15T05:47:05.822Z,83.00
2019-02-15T05:49:45.854Z,82.60
2019-02-15T05:52:26.137Z,82.90
2019-02-15T05:55:06.348Z,82.60
2019-02-15T05:57:46.351Z,82.80
2019-02-15T06:00:36.434Z,82.90
2019-02-15T06:03:08.769Z,83.10
2019-02-15T06:05:48.824Z,83.50
2019-02-15T06:08:28.814Z,83.60
2019-02-15T06:11:09.144Z,83.70
2019-02-15T06:13:48.754Z,83.80
2019-02-15T06:16:29.004Z,83.30
2019-02-15T06:19:09.198Z,83.40
2019-02-15T06:21:49.168Z,83.50
2019-02-15T06:24:29.220Z,84.00
2019-02-15T06:27:09.694Z,84.20
2019-02-15T06:29:49.712Z,84.20
2019-02-15T06:32:29.712Z,84.20
2019-02-15T06:35:09.776Z,84.50
2019-02-15T06:37:49.905Z,84.70
2019-02-15T06:40:30.200Z,85.00
2019-02-15T06:43:10.192Z,85.20
2019-02-15T06:45:50.125Z,85.30
2019-02-15T06:48:30.181Z,85.60
2019-02-15T06:51:10.221Z,85.40
2019-02-15T06:53:50.504Z,85.70
2019-02-15T06:56:30.621Z,85.20
2019-02-15T06:59:30.125Z,85.00
2019-02-15T07:05:30.884Z,84.10
2019-02-15T07:08:10.641Z,83.90
2019-02-15T07:10:50.591Z,83.30
2019-02-15T07:13:30.384Z,82.80
2019-02-15T07:16:10.587Z,82.90
2019-02-15T07:18:50.724Z,82.80
2019-02-15T07:21:30.722Z,83.00
2019-02-15T07:24:10.752Z,83.10
2019-02-15T07:26:51.920Z,82.70
2019-02-15T07:29:32.024Z,81.80
2019-02-15T07:32:12.301Z,81.40
2019-02-15T07:34:52.352Z,81.10
2019-02-15T07:37:32.628Z,81.10
2019-02-15T07:40:12.794Z,82.10
2019-02-15T07:42:52.895Z,82.30
2019-02-15T07:45:42.294Z,81.10
2019-02-15T07:48:15.209Z,78.60
2019-02-15T07:50:55.225Z,73.80
2019-02-15T07:53:35.305Z,70.20
2019-02-15T07:56:15.610Z,67.60
2019-02-15T07:58:55.754Z,63.90
2019-02-15T08:01:36.053Z,59.70
2019-02-15T08:04:16.341Z,58.10
2019-02-15T08:06:56.557Z,55.90
2019-02-15T08:09:36.774Z,53.70
2019-02-15T08:12:17.009Z,52.50
2019-02-15T08:14:57.087Z,50.40
2019-02-15T08:17:36.865Z,49.50
2019-02-15T08:20:16.978Z,48.20
2019-02-15T08:22:58.097Z,47.20
2019-02-15T08:25:38.417Z,46.40
2019-02-15T08:28:18.343Z,45.50
2019-02-15T08:30:58.536Z,44.90
2019-02-15T08:33:38.671Z,43.50
2019-02-15T08:36:18.798Z,42.60
2019-02-15T08:38:58.768Z,42.80
2019-02-15T08:41:38.925Z,41.70
2019-02-15T08:44:19.341Z,41.10
2019-02-15T08:46:59.616Z,40.70
2019-02-15T08:49:39.899Z,40.80
2019-02-15T08:52:20.028Z,40.40
2019-02-15T08:55:00.322Z,40.50
2019-02-15T08:57:40.352Z,40.00
2019-02-15T09:00:20.608Z,39.60
2019-02-15T09:03:00.484Z,39.30
2019-02-15T09:05:40.714Z,39.30
2019-02-15T09:08:20.925Z,39.30
2019-02-15T09:11:02.385Z,38.70
2019-02-15T09:13:42.932Z,38.50
2019-02-15T09:16:23.300Z,37.90
2019-02-15T09:19:03.352Z,37.00
2019-02-15T09:21:44.000Z,36.50
2019-02-15T09:24:23.513Z,36.40
2019-02-15T09:29:58.613Z,35.70
2019-02-15T09:32:38.964Z,35.20
2019-02-15T09:35:19.040Z,34.90
2019-02-15T09:37:59.205Z,34.80
2019-02-15T09:40:39.202Z,34.20
2019-02-15T09:43:19.217Z,34.20
2019-02-15T09:45:59.361Z,33.80
2019-02-15T09:48:39.432Z,33.60
2019-02-15T09:51:19.884Z,33.60
2019-02-15T09:53:59.818Z,33.10
2019-02-15T09:56:39.941Z,32.70
2019-02-15T09:59:20.136Z,32.30
2019-02-15T10:02:00.497Z,31.60
2019-02-15T10:04:41.051Z,31.30
2019-02-15T10:07:21.088Z,31.10
2019-02-15T10:10:01.111Z,30.90
2019-02-15T10:12:41.419Z,30.20
2019-02-15T10:15:21.565Z,30.40
2019-02-15T10:18:01.776Z,30.00
2019-02-15T10:20:41.856Z,29.70
2019-02-15T10:23:21.985Z,29.70
2019-02-15T10:26:02.301Z,29.30
2019-02-15T10:28:42.148Z,29.40
2019-02-15T10:31:22.212Z,29.00
2019-02-15T10:34:02.012Z,29.00
2019-02-15T10:36:42.355Z,28.80
2019-02-15T10:39:22.206Z,28.40
2019-02-15T10:42:02.410Z,28.00
2019-02-15T10:44:42.847Z,28.00
2019-02-15T10:47:24.988Z,27.40
2019-02-15T10:50:05.255Z,27.60
2019-02-15T10:52:45.492Z,26.70
2019-02-15T10:55:25.552Z,26.50
2019-02-15T10:58:05.889Z,26.30
2019-02-15T11:00:45.852Z,26.40
2019-02-15T11:03:13.448Z,26.20
2019-02-15T11:05:41.110Z,25.90
2019-02-15T11:08:08.883Z,25.90
2019-02-15T11:10:36.493Z,25.30
2019-02-15T11:13:04.136Z,25.40
2019-02-15T11:15:31.761Z,25.30
2019-02-15T11:18:01.740Z,25.20
2019-02-15T11:20:29.304Z,25.00
2019-02-15T11:22:56.903Z,25.10
2019-02-15T11:25:24.504Z,24.70
2019-02-15T11:27:52.134Z,24.80
2019-02-15T11:30:19.714Z,24.40
2019-02-15T11:32:47.330Z,24.20
2019-02-15T11:35:14.957Z,23.80
2019-02-15T11:38:02.343Z,24.00
2019-02-15T11:40:41.952Z,23.90
2019-02-15T11:43:22.065Z,23.70
2019-02-15T11:46:02.157Z,22.80
2019-02-15T11:48:42.285Z,23.00
2019-02-15T11:51:22.424Z,23.40
2019-02-15T11:54:02.464Z,23.40
2019-02-15T11:56:42.454Z,23.40
2019-02-15T11:59:22.509Z,23.50
2019-02-15T12:02:06.259Z,23.70
2019-02-15T12:04:44.987Z,23.50
2019-02-15T12:07:24.951Z,23.30
2019-02-15T12:10:05.064Z,23.20
2019-02-15T12:12:45.427Z,23.20
2019-02-15T12:15:25.325Z,23.00
2019-02-15T12:21:18.446Z,22.30
2019-02-15T12:23:58.573Z,22.70
2019-02-15T12:26:38.790Z,22.80
2019-02-15T12:29:18.773Z,22.50
2019-02-15T12:31:58.821Z,22.10
2019-02-15T12:34:39.013Z,21.90
2019-02-15T12:37:19.317Z,22.10
2019-02-15T12:40:00.408Z,22.00
2019-02-15T12:42:40.775Z,21.20
2019-02-15T12:45:08.930Z,20.90
2019-02-15T12:47:49.049Z,21.10
2019-02-15T12:50:29.004Z,20.80
2019-02-15T12:53:09.329Z,20.50
2019-02-15T12:55:49.364Z,20.60
2019-02-15T12:58:29.722Z,20.30
2019-02-15T13:01:10.121Z,20.00
2019-02-15T13:03:50.676Z,20.20
2019-02-15T13:06:30.838Z,20.00
2019-02-15T13:09:10.842Z,20.10
2019-02-15T13:11:51.157Z,20.60
2019-02-15T13:14:31.352Z,20.40
2019-02-15T13:17:11.339Z,20.50
2019-02-15T13:19:51.515Z,20.30
2019-02-15T13:22:31.869Z,20.40
2019-02-15T13:25:11.885Z,20.40
2019-02-15T13:27:52.418Z,20.60
2019-02-15T13:30:32.152Z,20.20
2019-02-15T13:33:12.284Z,20.00
2019-02-15T13:35:52.413Z,19.40
2019-02-15T13:38:32.594Z,19.00
2019-02-15T13:41:12.382Z,18.70
2019-02-15T13:43:52.468Z,18.50
2019-02-15T13:46:20.267Z,18.60
2019-02-15T13:49:07.444Z,18.80
2019-02-15T13:54:34.008Z,18.70
2019-02-15T14:00:26.627Z,18.90
2019-02-15T14:03:06.379Z,18.40
2019-02-15T14:05:46.501Z,18.60
2019-02-15T14:08:26.378Z,18.10
2019-02-15T14:11:06.625Z,18.00
2019-02-15T14:13:46.977Z,18.00
2019-02-15T14:16:27.845Z,18.50
2019-02-15T14:19:08.294Z,18.80
2019-02-15T14:21:48.383Z,18.70
2019-02-15T14:24:28.565Z,18.80
2019-02-15T14:27:09.021Z,18.90
2019-02-15T14:29:49.813Z,18.90
2019-02-15T14:32:30.565Z,19.60
2019-02-15T14:35:10.497Z,19.70
2019-02-15T14:37:38.309Z,19.50
2019-02-15T14:40:25.292Z,19.50
2019-02-15T14:43:12.405Z,18.90
2019-02-15T14:45:40.113Z,18.60
2019-02-15T14:48:09.355Z,18.60
2019-02-15T14:50:56.368Z,18.60
2019-02-15T14:53:43.701Z,18.40
2019-02-15T14:56:24.179Z,18.30
2019-02-15T14:59:04.380Z,18.00
2019-02-15T15:01:44.497Z,18.00
2019-02-15T15:04:24.670Z,18.00
2019-02-15T15:07:04.824Z,18.00
2019-02-15T15:09:44.977Z,18.10
2019-02-15T15:12:25.153Z,18.20
2019-02-15T15:15:05.369Z,18.50
2019-02-15T15:17:45.837Z,18.90
2019-02-15T15:20:25.369Z,19.00
2019-02-15T15:23:06.689Z,19.20
2019-02-15T15:25:46.927Z,19.40
2019-02-15T15:28:27.083Z,19.70
2019-02-15T15:31:07.185Z,19.80
2019-02-15T15:33:47.241Z,20.10
2019-02-15T15:36:27.290Z,20.20
2019-02-15T15:39:07.400Z,20.80
2019-02-15T15:41:47.909Z,21.10
2019-02-15T15:44:27.869Z,21.30
2019-02-15T15:47:08.181Z,21.30
2019-02-15T15:49:48.132Z,21.30
2019-02-15T15:52:27.857Z,21.60
2019-02-15T15:55:08.249Z,21.10
2019-02-15T15:57:48.200Z,21.10
2019-02-15T16:00:28.430Z,21.20
2019-02-15T16:03:08.713Z,21.40
2019-02-15T16:05:48.665Z,21.70
2019-02-15T16:08:28.728Z,22.20
2019-02-15T16:11:08.729Z,22.50
2019-02-15T16:13:48.873Z,22.90
2019-02-15T16:16:29.088Z,23.30
2019-02-15T16:18:57.098Z,23.70
2019-02-15T16:21:44.554Z,24.00
2019-02-15T16:24:24.465Z,24.30
2019-02-15T16:27:04.650Z,25.30
2019-02-15T16:29:45.968Z,25.50
2019-02-15T16:32:25.656Z,26.30
2019-02-15T16:35:05.716Z,27.30
2019-02-15T16:37:45.945Z,28.20
2019-02-15T16:40:26.048Z,29.30
2019-02-15T16:43:06.263Z,30.10
2019-02-15T16:45:46.327Z,31.40
2019-02-15T16:48:26.392Z,32.50
2019-02-15T16:51:06.649Z,34.10
2019-02-15T16:53:46.661Z,35.20
2019-02-15T16:56:27.808Z,37.10
2019-02-15T16:59:08.304Z,38.70
2019-02-15T17:01:48.754Z,40.30
2019-02-15T17:04:28.493Z,42.00
2019-02-15T17:07:08.589Z,43.60
2019-02-15T17:09:48.724Z,44.30
2019-02-15T17:12:28.873Z,45.30
2019-02-15T17:15:09.160Z,46.20
2019-02-15T17:17:49.155Z,47.00
2019-02-15T17:20:29.408Z,47.60
2019-02-15T17:23:09.994Z,48.30
2019-02-15T17:25:49.839Z,48.80
2019-02-15T17:28:29.989Z,49.50
2019-02-15T17:31:10.455Z,49.50
2019-02-15T17:33:50.550Z,50.70
2019-02-15T17:36:30.764Z,50.80
2019-02-15T17:39:11.068Z,51.10
2019-02-15T17:41:51.097Z,51.40
2019-02-15T17:44:31.478Z,52.70
2019-02-15T17:47:12.450Z,52.80
2019-02-15T17:49:52.628Z,53.70
2019-02-15T17:52:32.897Z,53.80
2019-02-15T17:55:12.906Z,53.90
2019-02-15T17:57:53.109Z,54.10
2019-02-15T18:00:33.484Z,54.30
2019-02-15T18:03:13.584Z,55.10
2019-02-15T18:05:53.765Z,55.20
2019-02-15T18:08:33.914Z,55.50
2019-02-15T18:11:14.039Z,55.60
2019-02-15T18:13:54.090Z,55.90
2019-02-15T18:16:34.233Z,55.90
2019-02-15T18:19:14.868Z,55.90
2019-02-15T18:21:54.644Z,56.40
2019-02-15T18:24:34.985Z,56.10
2019-02-15T18:27:15.131Z,56.60
2019-02-15T18:29:55.265Z,56.50
2019-02-15T18:32:35.178Z,56.90
2019-02-15T18:35:15.442Z,57.20
2019-02-15T18:37:55.226Z,57.40
2019-02-15T18:40:35.488Z,57.90
2019-02-15T18:43:15.665Z,58.20
2019-02-15T18:45:55.914Z,58.10
2019-02-15T18:48:35.913Z,58.00
2019-02-15T18:51:15.772Z,58.30
2019-02-15T18:53:55.877Z,57.60
2019-02-15T18:56:35.912Z,57.70
2019-02-15T18:59:15.766Z,57.60
2019-02-15T19:01:55.889Z,57.60
2019-02-15T19:04:35.918Z,57.60
2019-02-15T19:07:16.114Z,57.40
2019-02-15T19:09:43.745Z,57.70
2019-02-15T19:12:30.749Z,57.90
2019-02-15T19:15:10.664Z,58.00
2019-02-15T19:17:50.801Z,58.30
2019-02-15T19:20:31.084Z,58.70
2019-02-15T19:23:11.216Z,58.70
2019-02-15T19:25:51.309Z,59.20
2019-02-15T19:28:31.434Z,59.10
2019-02-15T19:31:11.777Z,59.90
2019-02-15T19:33:52.004Z,58.80
2019-02-15T19:36:33.317Z,58.90
2019-02-15T19:39:13.324Z,59.30
2019-02-15T19:41:53.425Z,59.50
2019-02-15T19:44:33.441Z,59.90
2019-02-15T19:47:13.108Z,59.80
2019-02-15T19:49:53.309Z,60.00
2019-02-15T19:52:33.330Z,60.10
2019-02-15T19:55:13.367Z,60.00
2019-02-15T19:57:53.511Z,60.80
2019-02-15T20:00:21.479Z,61.00
2019-02-15T20:02:49.043Z,61.60
2019-02-15T20:05:19.156Z,61.40
2019-02-15T20:07:46.764Z,61.70
2019-02-15T20:10:16.111Z,61.70
2019-02-15T20:12:43.736Z,61.80
2019-02-15T20:15:11.902Z,62.10
2019-02-15T20:17:39.550Z,62.20
2019-02-15T20:20:09.046Z,62.20
2019-02-15T20:22:36.623Z,61.90
2019-02-15T20:25:04.453Z,61.90
2019-02-15T20:27:32.096Z,62.10
2019-02-15T20:29:59.680Z,62.70
2019-02-15T20:32:27.284Z,63.10
2019-02-15T20:34:54.932Z,63.10
2019-02-15T20:37:22.532Z,63.50
2019-02-15T20:39:50.116Z,63.80
2019-02-15T20:42:17.763Z,63.80
2019-02-15T20:44:45.352Z,64.00
2019-02-15T20:47:12.970Z,64.30
2019-02-15T20:49:40.751Z,64.40
2019-02-15T20:52:08.355Z,64.00
2019-02-15T20:54:36.022Z,64.60
2019-02-15T20:57:03.605Z,64.40
2019-02-15T20:59:31.180Z,64.30
2019-02-15T21:01:58.800Z,64.70
2019-02-15T21:04:26.389Z,64.50
2019-02-15T21:06:54.017Z,64.90
2019-02-15T21:09:21.604Z,65.20
2019-02-15T21:11:49.212Z,65.50
2019-02-15T21:14:16.864Z,66.10
2019-02-15T21:16:44.536Z,65.80
2019-02-15T21:19:12.206Z,66.00
2019-02-15T21:21:39.871Z,66.20
2019-02-15T21:24:07.444Z,66.10
2019-02-15T21:26:35.048Z,66.40
2019-02-15T21:29:02.647Z,66.90
2019-02-15T21:31:30.268Z,66.60
2019-02-15T21:33:57.824Z,66.60
2019-02-15T21:36:25.396Z,66.90
2019-02-15T21:38:53.020Z,67.10
2019-02-15T21:41:20.642Z,67.30
2019-02-15T21:43:48.225Z,67.70
2019-02-15T21:46:15.799Z,68.10
2019-02-15T21:48:43.460Z,68.00
2019-02-15T21:51:11.163Z,68.10
2019-02-15T21:53:38.792Z,68.30
2019-02-15T21:56:06.384Z,68.00
2019-02-15T21:58:34.538Z,68.10
2019-02-15T22:01:02.444Z,68.40
2019-02-15T22:03:30.021Z,68.50
2019-02-15T22:05:57.632Z,68.60
2019-02-15T22:08:25.290Z,68.60
2019-02-15T22:10:53.037Z,69.00
2019-02-15T22:13:20.666Z,69.40
2019-02-15T22:15:48.236Z,69.30
2019-02-15T22:18:15.836Z,69.00
2019-02-15T22:20:43.478Z,69.10
2019-02-15T22:23:11.256Z,69.30
2019-02-15T22:25:38.815Z,69.60
2019-02-15T22:28:34.797Z,69.70
2019-02-15T22:31:21.824Z,69.80
2019-02-15T22:34:01.872Z,70.10
2019-02-15T22:36:42.263Z,70.10
2019-02-15T22:39:22.250Z,70.00
2019-02-15T22:42:02.673Z,70.20
2019-02-15T22:44:42.856Z,70.10
2019-02-15T22:47:22.884Z,70.00
2019-02-15T22:50:03.032Z,70.00
2019-02-15T22:52:43.448Z,70.10
2019-02-15T22:55:23.404Z,70.30
2019-02-15T22:58:04.669Z,70.50
2019-02-15T23:03:40.082Z,70.30
2019-02-15T23:06:20.128Z,70.40
2019-02-15T23:08:59.989Z,70.40
2019-02-15T23:11:40.173Z,70.60
2019-02-15T23:14:20.546Z,70.80
2019-02-15T23:17:00.533Z,70.70
2019-02-15T23:19:40.661Z,71.10
2019-02-15T23:22:20.801Z,71.30
2019-02-15T23:25:01.127Z,71.60
2019-02-15T23:27:41.393Z,71.90
2019-02-15T23:30:21.518Z,72.20
2019-02-15T23:33:01.438Z,72.20
2019-02-15T23:35:41.692Z,71.90
2019-02-15T23:38:21.448Z,72.70
2019-02-15T23:41:01.637Z,72.80
2019-02-15T23:43:41.845Z,72.90
2019-02-15T23:46:21.909Z,73.00
2019-02-15T23:49:01.957Z,73.50
2019-02-15T23:51:42.323Z,73.60
2019-02-15T23:54:22.523Z,73.70
2019-02-15T23:57:02.550Z,74.00
2019-02-15T23:59:42.668Z,74.40
